sensor_id;sensor_type;location;lat;lon;timestamp;P1;durP1;ratioP1;P2;durP2;ratioP2
7783;SDS011;19359;51.402;6.778;2023-04-03T00:00:22;3.10;;;2.47;;
7783;SDS011;19359;51.402;6.778;2023-04-03T00:02:49;2.58;;;2.38;;
7783;SDS011;19359;51.402;6.778;2023-04-03T00:05:16;2.42;;;2.28;;
7783;SDS011;19359;51.402;6.778;2023-04-03T00:07:43;2.25;;;2.13;;
7783;SDS011;19359;51.402;6.778;2023-04-03T00:10:10;2.97;;;2.80;;
7783;SDS011;19359;51.402;6.778;2023-04-03T00:12:38;3.28;;;2.97;;
7783;SDS011;19359;51.402;6.778;2023-04-03T00:15:05;3.13;;;2.80;;
7783;SDS011;19359;51.402;6.778;2023-04-03T00:17:33;3.13;;;2.42;;
7783;SDS011;19359;51.402;6.778;2023-04-03T00:20:00;4.15;;;2.53;;
7783;SDS011;19359;51.402;6.778;2023-04-03T00:22:27;2.47;;;2.28;;
7783;SDS011;19359;51.402;6.778;2023-04-03T00:24:54;4.07;;;2.60;;
7783;SDS011;19359;51.402;6.778;2023-04-03T00:27:22;7.00;;;2.88;;
7783;SDS011;19359;51.402;6.778;2023-04-03T00:29:50;7.07;;;3.08;;
7783;SDS011;19359;51.402;6.778;2023-04-03T00:32:17;4.53;;;2.92;;
7783;SDS011;19359;51.402;6.778;2023-04-03T00:34:44;6.38;;;3.35;;
7783;SDS011;19359;51.402;6.778;2023-04-03T00:37:11;7.28;;;2.88;;
7783;SDS011;19359;51.402;6.778;2023-04-03T00:39:38;4.93;;;3.25;;
7783;SDS011;19359;51.402;6.778;2023-04-03T00:42:05;6.78;;;3.42;;
7783;SDS011;19359;51.402;6.778;2023-04-03T00:47:38;5.15;;;3.30;;
7783;SDS011;19359;51.402;6.778;2023-04-03T00:50:06;4.95;;;3.35;;
7783;SDS011;19359;51.402;6.778;2023-04-03T00:52:34;5.57;;;3.60;;
7783;SDS011;19359;51.402;6.778;2023-04-03T00:55:03;9.02;;;3.38;;
7783;SDS011;19359;51.402;6.778;2023-04-03T00:57:33;4.70;;;3.65;;
7783;SDS011;19359;51.402;6.778;2023-04-03T01:00:03;4.25;;;3.53;;
7783;SDS011;19359;51.402;6.778;2023-04-03T01:02:34;3.97;;;3.38;;
7783;SDS011;19359;51.402;6.778;2023-04-03T01:05:02;4.93;;;3.65;;
7783;SDS011;19359;51.402;6.778;2023-04-03T01:07:31;4.72;;;3.50;;
7783;SDS011;19359;51.402;6.778;2023-04-03T01:10:01;4.18;;;3.65;;
7783;SDS011;19359;51.402;6.778;2023-04-03T01:12:31;3.85;;;3.35;;
7783;SDS011;19359;51.402;6.778;2023-04-03T01:15:00;4.35;;;3.92;;
7783;SDS011;19359;51.402;6.778;2023-04-03T01:17:30;4.90;;;3.78;;
7783;SDS011;19359;51.402;6.778;2023-04-03T01:22:54;5.38;;;3.47;;
7783;SDS011;19359;51.402;6.778;2023-04-03T01:25:25;11.30;;;3.65;;
7783;SDS011;19359;51.402;6.778;2023-04-03T01:27:52;7.28;;;3.78;;
7783;SDS011;19359;51.402;6.778;2023-04-03T01:30:20;8.98;;;3.80;;
7783;SDS011;19359;51.402;6.778;2023-04-03T01:32:51;4.22;;;3.90;;
7783;SDS011;19359;51.402;6.778;2023-04-03T01:35:18;5.68;;;3.88;;
7783;SDS011;19359;51.402;6.778;2023-04-03T01:37:45;13.68;;;4.95;;
7783;SDS011;19359;51.402;6.778;2023-04-03T01:40:11;3.83;;;3.47;;
7783;SDS011;19359;51.402;6.778;2023-04-03T01:42:38;4.70;;;3.80;;
7783;SDS011;19359;51.402;6.778;2023-04-03T01:45:05;5.43;;;3.65;;
7783;SDS011;19359;51.402;6.778;2023-04-03T01:47:32;4.30;;;3.75;;
7783;SDS011;19359;51.402;6.778;2023-04-03T01:50:00;4.50;;;3.53;;
7783;SDS011;19359;51.402;6.778;2023-04-03T01:52:27;5.35;;;3.47;;
7783;SDS011;19359;51.402;6.778;2023-04-03T01:54:55;4.93;;;4.53;;
7783;SDS011;19359;51.402;6.778;2023-04-03T01:57:21;4.88;;;4.15;;
7783;SDS011;19359;51.402;6.778;2023-04-03T01:59:48;10.05;;;3.95;;
7783;SDS011;19359;51.402;6.778;2023-04-03T02:02:16;4.85;;;4.07;;
7783;SDS011;19359;51.402;6.778;2023-04-03T02:04:44;5.75;;;4.57;;
7783;SDS011;19359;51.402;6.778;2023-04-03T02:07:12;5.50;;;4.35;;
7783;SDS011;19359;51.402;6.778;2023-04-03T02:09:39;5.13;;;3.75;;
7783;SDS011;19359;51.402;6.778;2023-04-03T02:12:06;3.83;;;3.53;;
7783;SDS011;19359;51.402;6.778;2023-04-03T02:14:32;4.95;;;3.70;;
7783;SDS011;19359;51.402;6.778;2023-04-03T02:17:00;4.10;;;3.75;;
7783;SDS011;19359;51.402;6.778;2023-04-03T02:19:29;4.15;;;3.85;;
7783;SDS011;19359;51.402;6.778;2023-04-03T02:21:56;4.28;;;3.85;;
7783;SDS011;19359;51.402;6.778;2023-04-03T02:24:24;4.97;;;4.47;;
7783;SDS011;19359;51.402;6.778;2023-04-03T02:26:52;7.25;;;4.55;;
7783;SDS011;19359;51.402;6.778;2023-04-03T02:29:19;8.32;;;5.25;;
7783;SDS011;19359;51.402;6.778;2023-04-03T02:31:46;4.55;;;4.18;;
7783;SDS011;19359;51.402;6.778;2023-04-03T02:34:12;4.65;;;4.15;;
7783;SDS011;19359;51.402;6.778;2023-04-03T02:36:39;7.20;;;4.38;;
7783;SDS011;19359;51.402;6.778;2023-04-03T02:39:06;6.68;;;4.72;;
7783;SDS011;19359;51.402;6.778;2023-04-03T02:41:35;6.20;;;3.90;;
7783;SDS011;19359;51.402;6.778;2023-04-03T02:44:02;9.02;;;4.35;;
7783;SDS011;19359;51.402;6.778;2023-04-03T02:46:29;4.55;;;4.15;;
7783;SDS011;19359;51.402;6.778;2023-04-03T02:48:57;4.22;;;3.88;;
7783;SDS011;19359;51.402;6.778;2023-04-03T02:51:23;9.15;;;4.22;;
7783;SDS011;19359;51.402;6.778;2023-04-03T02:53:50;5.72;;;4.28;;
7783;SDS011;19359;51.402;6.778;2023-04-03T02:56:17;4.50;;;4.10;;
7783;SDS011;19359;51.402;6.778;2023-04-03T02:58:46;7.15;;;4.63;;
7783;SDS011;19359;51.402;6.778;2023-04-03T03:01:13;5.40;;;4.20;;
7783;SDS011;19359;51.402;6.778;2023-04-03T03:03:41;8.90;;;4.30;;
7783;SDS011;19359;51.402;6.778;2023-04-03T03:06:08;3.95;;;3.65;;
7783;SDS011;19359;51.402;6.778;2023-04-03T03:08:36;7.00;;;3.63;;
7783;SDS011;19359;51.402;6.778;2023-04-03T03:11:03;4.35;;;3.97;;
7783;SDS011;19359;51.402;6.778;2023-04-03T03:13:30;5.88;;;3.78;;
7783;SDS011;19359;51.402;6.778;2023-04-03T03:15:59;3.90;;;2.88;;
7783;SDS011;19359;51.402;6.778;2023-04-03T03:18:26;3.70;;;3.40;;
7783;SDS011;19359;51.402;6.778;2023-04-03T03:20:53;5.25;;;3.63;;
7783;SDS011;19359;51.402;6.778;2023-04-03T03:23:21;10.30;;;4.18;;
7783;SDS011;19359;51.402;6.778;2023-04-03T03:25:53;5.20;;;4.45;;
7783;SDS011;19359;51.402;6.778;2023-04-03T03:28:21;5.10;;;4.45;;
7783;SDS011;19359;51.402;6.778;2023-04-03T03:30:48;4.32;;;3.33;;
7783;SDS011;19359;51.402;6.778;2023-04-03T03:33:16;3.78;;;3.45;;
7783;SDS011;19359;51.402;6.778;2023-04-03T03:35:43;10.68;;;5.70;;
7783;SDS011;19359;51.402;6.778;2023-04-03T03:38:10;8.18;;;5.18;;
7783;SDS011;19359;51.402;6.778;2023-04-03T03:40:37;11.77;;;9.20;;
7783;SDS011;19359;51.402;6.778;2023-04-03T03:43:04;12.63;;;9.05;;
7783;SDS011;19359;51.402;6.778;2023-04-03T03:45:31;11.02;;;6.95;;
7783;SDS011;19359;51.402;6.778;2023-04-03T03:47:57;4.80;;;4.20;;
7783;SDS011;19359;51.402;6.778;2023-04-03T03:50:26;4.70;;;2.70;;
7783;SDS011;19359;51.402;6.778;2023-04-03T03:52:52;4.50;;;2.05;;
7783;SDS011;19359;51.402;6.778;2023-04-03T03:55:19;2.00;;;1.90;;
7783;SDS011;19359;51.402;6.778;2023-04-03T03:57:46;2.53;;;2.17;;
7783;SDS011;19359;51.402;6.778;2023-04-03T04:00:13;2.92;;;2.00;;
7783;SDS011;19359;51.402;6.778;2023-04-03T04:02:41;3.10;;;2.00;;
7783;SDS011;19359;51.402;6.778;2023-04-03T04:05:08;3.03;;;1.40;;
7783;SDS011;19359;51.402;6.778;2023-04-03T04:07:36;4.25;;;1.20;;
7783;SDS011;19359;51.402;6.778;2023-04-03T04:10:03;2.22;;;1.95;;
7783;SDS011;19359;51.402;6.778;2023-04-03T04:12:30;2.50;;;1.80;;
7783;SDS011;19359;51.402;6.778;2023-04-03T04:14:57;1.95;;;1.45;;
7783;SDS011;19359;51.402;6.778;2023-04-03T04:17:24;5.05;;;1.88;;
7783;SDS011;19359;51.402;6.778;2023-04-03T04:19:50;4.53;;;1.30;;
7783;SDS011;19359;51.402;6.778;2023-04-03T04:22:17;3.47;;;1.30;;
7783;SDS011;19359;51.402;6.778;2023-04-03T04:24:45;8.32;;;1.38;;
7783;SDS011;19359;51.402;6.778;2023-04-03T04:27:12;1.58;;;1.52;;
7783;SDS011;19359;51.402;6.778;2023-04-03T04:29:38;1.77;;;0.90;;
7783;SDS011;19359;51.402;6.778;2023-04-03T04:32:05;4.13;;;1.95;;
7783;SDS011;19359;51.402;6.778;2023-04-03T04:34:33;4.80;;;1.30;;
7783;SDS011;19359;51.402;6.778;2023-04-03T04:37:00;2.10;;;1.33;;
7783;SDS011;19359;51.402;6.778;2023-04-03T04:39:27;1.67;;;1.58;;
7783;SDS011;19359;51.402;6.778;2023-04-03T04:41:55;3.60;;;1.00;;
7783;SDS011;19359;51.402;6.778;2023-04-03T04:44:22;2.88;;;1.20;;
7783;SDS011;19359;51.402;6.778;2023-04-03T04:46:48;2.50;;;1.20;;
7783;SDS011;19359;51.402;6.778;2023-04-03T04:49:15;1.48;;;1.00;;
7783;SDS011;19359;51.402;6.778;2023-04-03T04:51:42;1.67;;;1.33;;
7783;SDS011;19359;51.402;6.778;2023-04-03T04:54:09;6.18;;;1.67;;
7783;SDS011;19359;51.402;6.778;2023-04-03T04:56:35;3.08;;;1.40;;
7783;SDS011;19359;51.402;6.778;2023-04-03T04:59:03;1.63;;;0.88;;
7783;SDS011;19359;51.402;6.778;2023-04-03T05:01:30;2.10;;;1.23;;
7783;SDS011;19359;51.402;6.778;2023-04-03T05:03:57;2.85;;;1.42;;
7783;SDS011;19359;51.402;6.778;2023-04-03T05:06:24;3.33;;;1.45;;
7783;SDS011;19359;51.402;6.778;2023-04-03T05:08:51;3.15;;;1.17;;
7783;SDS011;19359;51.402;6.778;2023-04-03T05:11:17;3.33;;;1.50;;
7783;SDS011;19359;51.402;6.778;2023-04-03T05:13:45;4.50;;;2.25;;
7783;SDS011;19359;51.402;6.778;2023-04-03T05:16:13;3.88;;;1.35;;
7783;SDS011;19359;51.402;6.778;2023-04-03T05:18:40;5.93;;;1.25;;
7783;SDS011;19359;51.402;6.778;2023-04-03T05:21:07;3.47;;;1.80;;
7783;SDS011;19359;51.402;6.778;2023-04-03T05:23:33;1.20;;;1.10;;
7783;SDS011;19359;51.402;6.778;2023-04-03T05:26:00;7.65;;;1.10;;
7783;SDS011;19359;51.402;6.778;2023-04-03T05:28:29;8.43;;;1.20;;
7783;SDS011;19359;51.402;6.778;2023-04-03T05:30:56;8.30;;;1.15;;
7783;SDS011;19359;51.402;6.778;2023-04-03T05:33:25;7.53;;;1.27;;
7783;SDS011;19359;51.402;6.778;2023-04-03T05:35:52;1.90;;;1.48;;
7783;SDS011;19359;51.402;6.778;2023-04-03T05:38:20;2.33;;;1.15;;
7783;SDS011;19359;51.402;6.778;2023-04-03T05:40:47;4.35;;;1.30;;
7783;SDS011;19359;51.402;6.778;2023-04-03T05:43:14;5.88;;;1.45;;
7783;SDS011;19359;51.402;6.778;2023-04-03T05:45:42;3.03;;;1.40;;
7783;SDS011;19359;51.402;6.778;2023-04-03T05:48:08;2.70;;;1.35;;
7783;SDS011;19359;51.402;6.778;2023-04-03T05:50:37;1.15;;;1.13;;
7783;SDS011;19359;51.402;6.778;2023-04-03T05:53:06;8.35;;;1.60;;
7783;SDS011;19359;51.402;6.778;2023-04-03T05:55:36;4.35;;;1.38;;
7783;SDS011;19359;51.402;6.778;2023-04-03T05:58:03;2.35;;;1.02;;
7783;SDS011;19359;51.402;6.778;2023-04-03T06:00:29;4.93;;;1.58;;
7783;SDS011;19359;51.402;6.778;2023-04-03T06:02:56;4.10;;;1.40;;
7783;SDS011;19359;51.402;6.778;2023-04-03T06:05:23;2.42;;;1.13;;
7783;SDS011;19359;51.402;6.778;2023-04-03T06:07:51;6.18;;;1.10;;
7783;SDS011;19359;51.402;6.778;2023-04-03T06:10:18;1.85;;;1.02;;
7783;SDS011;19359;51.402;6.778;2023-04-03T06:12:45;4.85;;;1.70;;
7783;SDS011;19359;51.402;6.778;2023-04-03T06:15:13;4.40;;;1.70;;
7783;SDS011;19359;51.402;6.778;2023-04-03T06:17:42;13.35;;;1.45;;
7783;SDS011;19359;51.402;6.778;2023-04-03T06:20:09;3.50;;;1.85;;
7783;SDS011;19359;51.402;6.778;2023-04-03T06:22:37;1.45;;;1.35;;
7783;SDS011;19359;51.402;6.778;2023-04-03T06:25:05;3.20;;;1.30;;
7783;SDS011;19359;51.402;6.778;2023-04-03T06:27:34;1.08;;;1.08;;
7783;SDS011;19359;51.402;6.778;2023-04-03T06:30:01;0.98;;;0.82;;
7783;SDS011;19359;51.402;6.778;2023-04-03T06:32:28;3.00;;;1.25;;
7783;SDS011;19359;51.402;6.778;2023-04-03T06:34:55;2.50;;;1.10;;
7783;SDS011;19359;51.402;6.778;2023-04-03T06:37:22;2.70;;;1.15;;
7783;SDS011;19359;51.402;6.778;2023-04-03T06:39:51;4.15;;;1.38;;
7783;SDS011;19359;51.402;6.778;2023-04-03T06:42:19;3.08;;;1.50;;
7783;SDS011;19359;51.402;6.778;2023-04-03T06:44:46;2.22;;;1.30;;
7783;SDS011;19359;51.402;6.778;2023-04-03T06:47:13;3.33;;;1.55;;
7783;SDS011;19359;51.402;6.778;2023-04-03T06:49:42;3.63;;;0.80;;
7783;SDS011;19359;51.402;6.778;2023-04-03T06:52:10;6.47;;;2.42;;
7783;SDS011;19359;51.402;6.778;2023-04-03T06:54:38;2.58;;;0.95;;
7783;SDS011;19359;51.402;6.778;2023-04-03T06:57:05;3.15;;;1.50;;
7783;SDS011;19359;51.402;6.778;2023-04-03T06:59:33;1.85;;;0.93;;
7783;SDS011;19359;51.402;6.778;2023-04-03T07:02:01;2.63;;;1.23;;
7783;SDS011;19359;51.402;6.778;2023-04-03T07:04:28;1.95;;;1.23;;
7783;SDS011;19359;51.402;6.778;2023-04-03T07:06:54;3.05;;;1.05;;
7783;SDS011;19359;51.402;6.778;2023-04-03T07:09:21;1.63;;;1.42;;
7783;SDS011;19359;51.402;6.778;2023-04-03T07:11:48;4.72;;;1.55;;
7783;SDS011;19359;51.402;6.778;2023-04-03T07:14:15;2.20;;;1.58;;
7783;SDS011;19359;51.402;6.778;2023-04-03T07:16:43;10.13;;;1.45;;
7783;SDS011;19359;51.402;6.778;2023-04-03T07:19:09;4.70;;;0.90;;
7783;SDS011;19359;51.402;6.778;2023-04-03T07:21:37;8.27;;;1.35;;
7783;SDS011;19359;51.402;6.778;2023-04-03T07:24:03;1.73;;;1.25;;
7783;SDS011;19359;51.402;6.778;2023-04-03T07:26:30;6.15;;;1.00;;
7783;SDS011;19359;51.402;6.778;2023-04-03T07:28:57;2.50;;;0.93;;
7783;SDS011;19359;51.402;6.778;2023-04-03T07:31:24;0.85;;;0.73;;
7783;SDS011;19359;51.402;6.778;2023-04-03T07:33:53;2.28;;;1.33;;
7783;SDS011;19359;51.402;6.778;2023-04-03T07:36:20;3.25;;;1.17;;
7783;SDS011;19359;51.402;6.778;2023-04-03T07:38:48;0.85;;;0.85;;
7783;SDS011;19359;51.402;6.778;2023-04-03T07:41:15;2.47;;;1.08;;
7783;SDS011;19359;51.402;6.778;2023-04-03T07:43:44;1.67;;;1.52;;
7783;SDS011;19359;51.402;6.778;2023-04-03T07:46:12;7.05;;;1.23;;
7783;SDS011;19359;51.402;6.778;2023-04-03T07:48:38;2.45;;;1.27;;
7783;SDS011;19359;51.402;6.778;2023-04-03T07:51:07;2.17;;;0.80;;
7783;SDS011;19359;51.402;6.778;2023-04-03T07:53:34;1.52;;;0.70;;
7783;SDS011;19359;51.402;6.778;2023-04-03T07:56:01;4.38;;;1.60;;
7783;SDS011;19359;51.402;6.778;2023-04-03T07:58:28;0.35;;;0.35;;
7783;SDS011;19359;51.402;6.778;2023-04-03T08:00:56;4.13;;;1.10;;
7783;SDS011;19359;51.402;6.778;2023-04-03T08:03:23;1.48;;;0.95;;
7783;SDS011;19359;51.402;6.778;2023-04-03T08:05:50;6.32;;;1.38;;
7783;SDS011;19359;51.402;6.778;2023-04-03T08:08:21;4.40;;;0.80;;
7783;SDS011;19359;51.402;6.778;2023-04-03T08:10:49;3.08;;;0.57;;
7783;SDS011;19359;51.402;6.778;2023-04-03T08:13:17;3.72;;;1.38;;
7783;SDS011;19359;51.402;6.778;2023-04-03T08:15:45;2.20;;;0.70;;
7783;SDS011;19359;51.402;6.778;2023-04-03T08:18:12;1.67;;;0.40;;
7783;SDS011;19359;51.402;6.778;2023-04-03T08:20:41;1.05;;;0.93;;
7783;SDS011;19359;51.402;6.778;2023-04-03T08:23:08;1.00;;;0.80;;
7783;SDS011;19359;51.402;6.778;2023-04-03T08:25:38;1.05;;;0.60;;
7783;SDS011;19359;51.402;6.778;2023-04-03T08:28:06;2.78;;;0.85;;
7783;SDS011;19359;51.402;6.778;2023-04-03T08:30:34;2.55;;;0.95;;
7783;SDS011;19359;51.402;6.778;2023-04-03T08:33:00;2.40;;;0.65;;
7783;SDS011;19359;51.402;6.778;2023-04-03T08:35:28;1.08;;;0.70;;
7783;SDS011;19359;51.402;6.778;2023-04-03T08:37:55;2.38;;;0.75;;
7783;SDS011;19359;51.402;6.778;2023-04-03T08:40:23;3.30;;;0.68;;
7783;SDS011;19359;51.402;6.778;2023-04-03T08:42:59;3.13;;;0.90;;
7783;SDS011;19359;51.402;6.778;2023-04-03T08:45:36;5.30;;;0.75;;
7783;SDS011;19359;51.402;6.778;2023-04-03T08:48:12;3.33;;;0.98;;
7783;SDS011;19359;51.402;6.778;2023-04-03T08:50:42;0.63;;;0.63;;
7783;SDS011;19359;51.402;6.778;2023-04-03T08:53:14;2.30;;;1.45;;
7783;SDS011;19359;51.402;6.778;2023-04-03T08:55:43;3.10;;;1.15;;
7783;SDS011;19359;51.402;6.778;2023-04-03T08:58:13;2.67;;;1.27;;
7783;SDS011;19359;51.402;6.778;2023-04-03T09:00:43;1.00;;;0.57;;
7783;SDS011;19359;51.402;6.778;2023-04-03T09:03:13;1.25;;;0.50;;
7783;SDS011;19359;51.402;6.778;2023-04-03T09:05:43;2.10;;;0.52;;
7783;SDS011;19359;51.402;6.778;2023-04-03T09:08:17;0.68;;;0.32;;
7783;SDS011;19359;51.402;6.778;2023-04-03T09:10:48;1.25;;;0.65;;
7783;SDS011;19359;51.402;6.778;2023-04-03T09:13:23;1.23;;;0.30;;
7783;SDS011;19359;51.402;6.778;2023-04-03T09:15:56;1.13;;;0.25;;
7783;SDS011;19359;51.402;6.778;2023-04-03T09:18:23;1.42;;;0.50;;
7783;SDS011;19359;51.402;6.778;2023-04-03T09:20:57;2.22;;;0.57;;
7783;SDS011;19359;51.402;6.778;2023-04-03T09:23:30;1.00;;;0.40;;
7783;SDS011;19359;51.402;6.778;2023-04-03T09:26:05;1.55;;;0.35;;
7783;SDS011;19359;51.402;6.778;2023-04-03T09:28:39;0.77;;;0.45;;
7783;SDS011;19359;51.402;6.778;2023-04-03T09:31:11;0.35;;;0.35;;
7783;SDS011;19359;51.402;6.778;2023-04-03T09:33:44;1.02;;;0.35;;
7783;SDS011;19359;51.402;6.778;2023-04-03T09:36:12;0.75;;;0.40;;
7783;SDS011;19359;51.402;6.778;2023-04-03T09:38:39;0.93;;;0.43;;
7783;SDS011;19359;51.402;6.778;2023-04-03T09:41:11;0.50;;;0.50;;
7783;SDS011;19359;51.402;6.778;2023-04-03T09:43:51;2.42;;;0.30;;
7783;SDS011;19359;51.402;6.778;2023-04-03T09:46:24;0.75;;;0.30;;
7783;SDS011;19359;51.402;6.778;2023-04-03T09:48:55;0.32;;;0.32;;
7783;SDS011;19359;51.402;6.778;2023-04-03T09:51:24;2.20;;;0.47;;
7783;SDS011;19359;51.402;6.778;2023-04-03T09:53:53;0.57;;;0.40;;
7783;SDS011;19359;51.402;6.778;2023-04-03T09:56:22;1.75;;;0.30;;
7783;SDS011;19359;51.402;6.778;2023-04-03T09:58:53;3.80;;;0.45;;
7783;SDS011;19359;51.402;6.778;2023-04-03T10:01:39;0.25;;;0.25;;
7783;SDS011;19359;51.402;6.778;2023-04-03T10:04:08;2.03;;;0.35;;
7783;SDS011;19359;51.402;6.778;2023-04-03T10:06:37;2.47;;;0.40;;
7783;SDS011;19359;51.402;6.778;2023-04-03T10:09:15;1.65;;;0.47;;
7783;SDS011;19359;51.402;6.778;2023-04-03T10:11:57;1.98;;;0.40;;
7783;SDS011;19359;51.402;6.778;2023-04-03T10:14:27;0.20;;;0.20;;
7783;SDS011;19359;51.402;6.778;2023-04-03T10:16:56;1.95;;;0.40;;
7783;SDS011;19359;51.402;6.778;2023-04-03T10:19:34;0.38;;;0.35;;
7783;SDS011;19359;51.402;6.778;2023-04-03T10:22:08;0.95;;;0.43;;
7783;SDS011;19359;51.402;6.778;2023-04-03T10:24:44;1.13;;;0.20;;
7783;SDS011;19359;51.402;6.778;2023-04-03T10:27:18;0.45;;;0.30;;
7783;SDS011;19359;51.402;6.778;2023-04-03T10:29:59;0.30;;;0.30;;
7783;SDS011;19359;51.402;6.778;2023-04-03T10:32:37;0.60;;;0.60;;
7783;SDS011;19359;51.402;6.778;2023-04-03T10:35:16;1.40;;;0.40;;
7783;SDS011;19359;51.402;6.778;2023-04-03T10:37:52;1.83;;;0.60;;
7783;SDS011;19359;51.402;6.778;2023-04-03T10:40:29;0.60;;;0.45;;
7783;SDS011;19359;51.402;6.778;2023-04-03T10:43:02;2.35;;;0.50;;
7783;SDS011;19359;51.402;6.778;2023-04-03T10:45:41;3.80;;;0.35;;
7783;SDS011;19359;51.402;6.778;2023-04-03T10:48:18;1.30;;;0.63;;
7783;SDS011;19359;51.402;6.778;2023-04-03T10:50:52;1.10;;;0.50;;
7783;SDS011;19359;51.402;6.778;2023-04-03T10:53:29;3.95;;;0.68;;
7783;SDS011;19359;51.402;6.778;2023-04-03T10:56:03;3.33;;;0.80;;
7783;SDS011;19359;51.402;6.778;2023-04-03T10:58:37;1.90;;;0.55;;
7783;SDS011;19359;51.402;6.778;2023-04-03T11:01:08;2.55;;;0.60;;
7783;SDS011;19359;51.402;6.778;2023-04-03T11:03:40;0.73;;;0.60;;
7783;SDS011;19359;51.402;6.778;2023-04-03T11:06:10;3.92;;;0.93;;
7783;SDS011;19359;51.402;6.778;2023-04-03T11:08:42;3.20;;;0.70;;
7783;SDS011;19359;51.402;6.778;2023-04-03T11:11:13;0.70;;;0.63;;
7783;SDS011;19359;51.402;6.778;2023-04-03T11:13:44;1.65;;;0.57;;
7783;SDS011;19359;51.402;6.778;2023-04-03T11:16:18;0.90;;;0.70;;
7783;SDS011;19359;51.402;6.778;2023-04-03T11:18:49;2.95;;;0.60;;
7783;SDS011;19359;51.402;6.778;2023-04-03T11:21:21;1.42;;;0.60;;
7783;SDS011;19359;51.402;6.778;2023-04-03T11:23:52;0.47;;;0.45;;
7783;SDS011;19359;51.402;6.778;2023-04-03T11:26:24;0.95;;;0.60;;
7783;SDS011;19359;51.402;6.778;2023-04-03T11:28:58;1.98;;;0.68;;
7783;SDS011;19359;51.402;6.778;2023-04-03T11:31:32;0.52;;;0.45;;
7783;SDS011;19359;51.402;6.778;2023-04-03T11:34:08;4.13;;;0.60;;
7783;SDS011;19359;51.402;6.778;2023-04-03T11:36:46;2.85;;;0.52;;
7783;SDS011;19359;51.402;6.778;2023-04-03T11:39:18;0.75;;;0.45;;
7783;SDS011;19359;51.402;6.778;2023-04-03T11:41:48;4.65;;;0.50;;
7783;SDS011;19359;51.402;6.778;2023-04-03T11:44:29;0.40;;;0.40;;
7783;SDS011;19359;51.402;6.778;2023-04-03T11:47:01;0.98;;;0.55;;
7783;SDS011;19359;51.402;6.778;2023-04-03T11:58:11;3.03;;;0.85;;
7783;SDS011;19359;51.402;6.778;2023-04-03T12:09:29;0.82;;;0.60;;
7783;SDS011;19359;51.402;6.778;2023-04-03T12:12:00;2.22;;;0.70;;
7783;SDS011;19359;51.402;6.778;2023-04-03T12:14:47;1.40;;;0.60;;
7783;SDS011;19359;51.402;6.778;2023-04-03T12:17:18;0.40;;;0.40;;
7783;SDS011;19359;51.402;6.778;2023-04-03T12:19:49;0.77;;;0.77;;
7783;SDS011;19359;51.402;6.778;2023-04-03T12:22:18;1.08;;;0.50;;
7783;SDS011;19359;51.402;6.778;2023-04-03T12:24:47;0.75;;;0.60;;
7783;SDS011;19359;51.402;6.778;2023-04-03T12:27:19;0.77;;;0.60;;
7783;SDS011;19359;51.402;6.778;2023-04-03T12:29:51;0.57;;;0.50;;
7783;SDS011;19359;51.402;6.778;2023-04-03T12:32:29;0.73;;;0.70;;
7783;SDS011;19359;51.402;6.778;2023-04-03T12:35:14;0.65;;;0.38;;
7783;SDS011;19359;51.402;6.778;2023-04-03T12:37:57;3.75;;;0.73;;
7783;SDS011;19359;51.402;6.778;2023-04-03T12:40:47;3.25;;;0.73;;
7783;SDS011;19359;51.402;6.778;2023-04-03T12:43:25;0.40;;;0.40;;
7783;SDS011;19359;51.402;6.778;2023-04-03T12:46:04;0.88;;;0.40;;
7783;SDS011;19359;51.402;6.778;2023-04-03T12:48:32;2.92;;;0.50;;
7783;SDS011;19359;51.402;6.778;2023-04-03T12:51:04;1.88;;;0.50;;
7783;SDS011;19359;51.402;6.778;2023-04-03T12:53:33;0.32;;;0.32;;
7783;SDS011;19359;51.402;6.778;2023-04-03T12:58:46;0.63;;;0.63;;
7783;SDS011;19359;51.402;6.778;2023-04-03T13:01:14;1.15;;;0.60;;
7783;SDS011;19359;51.402;6.778;2023-04-03T13:03:44;2.33;;;0.90;;
7783;SDS011;19359;51.402;6.778;2023-04-03T13:06:14;1.80;;;0.52;;
7783;SDS011;19359;51.402;6.778;2023-04-03T13:08:55;0.57;;;0.57;;
7783;SDS011;19359;51.402;6.778;2023-04-03T13:11:24;0.98;;;0.40;;
7783;SDS011;19359;51.402;6.778;2023-04-03T13:13:57;1.35;;;0.30;;
7783;SDS011;19359;51.402;6.778;2023-04-03T13:16:24;2.90;;;0.47;;
7783;SDS011;19359;51.402;6.778;2023-04-03T13:18:52;0.65;;;0.57;;
7783;SDS011;19359;51.402;6.778;2023-04-03T13:21:20;1.60;;;0.73;;
7783;SDS011;19359;51.402;6.778;2023-04-03T13:23:50;0.95;;;0.50;;
7783;SDS011;19359;51.402;6.778;2023-04-03T13:26:19;0.40;;;0.40;;
7783;SDS011;19359;51.402;6.778;2023-04-03T13:28:48;1.63;;;0.38;;
7783;SDS011;19359;51.402;6.778;2023-04-03T13:31:19;2.05;;;0.50;;
7783;SDS011;19359;51.402;6.778;2023-04-03T13:33:55;1.75;;;0.77;;
7783;SDS011;19359;51.402;6.778;2023-04-03T13:36:24;1.50;;;0.57;;
7783;SDS011;19359;51.402;6.778;2023-04-03T13:38:59;0.50;;;0.50;;
7783;SDS011;19359;51.402;6.778;2023-04-03T13:41:31;0.50;;;0.45;;
7783;SDS011;19359;51.402;6.778;2023-04-03T13:44:16;1.40;;;0.50;;
7783;SDS011;19359;51.402;6.778;2023-04-03T13:46:52;0.40;;;0.40;;
7783;SDS011;19359;51.402;6.778;2023-04-03T13:49:21;0.35;;;0.30;;
7783;SDS011;19359;51.402;6.778;2023-04-03T13:51:49;1.23;;;0.45;;
7783;SDS011;19359;51.402;6.778;2023-04-03T13:54:17;0.80;;;0.80;;
7783;SDS011;19359;51.402;6.778;2023-04-03T13:56:52;1.88;;;0.50;;
7783;SDS011;19359;51.402;6.778;2023-04-03T13:59:22;0.98;;;0.50;;
7783;SDS011;19359;51.402;6.778;2023-04-03T14:01:52;0.38;;;0.30;;
7783;SDS011;19359;51.402;6.778;2023-04-03T14:04:21;0.75;;;0.47;;
7783;SDS011;19359;51.402;6.778;2023-04-03T14:06:50;5.30;;;1.02;;
7783;SDS011;19359;51.402;6.778;2023-04-03T14:09:18;0.52;;;0.43;;
7783;SDS011;19359;51.402;6.778;2023-04-03T14:11:46;0.47;;;0.45;;
7783;SDS011;19359;51.402;6.778;2023-04-03T14:14:15;0.95;;;0.77;;
7783;SDS011;19359;51.402;6.778;2023-04-03T14:16:45;3.10;;;0.63;;
7783;SDS011;19359;51.402;6.778;2023-04-03T14:19:17;2.97;;;0.40;;
7783;SDS011;19359;51.402;6.778;2023-04-03T14:21:46;2.25;;;0.68;;
7783;SDS011;19359;51.402;6.778;2023-04-03T14:24:14;1.30;;;0.50;;
7783;SDS011;19359;51.402;6.778;2023-04-03T14:26:41;0.30;;;0.30;;
7783;SDS011;19359;51.402;6.778;2023-04-03T14:29:09;1.35;;;0.60;;
7783;SDS011;19359;51.402;6.778;2023-04-03T14:31:38;2.90;;;0.70;;
7783;SDS011;19359;51.402;6.778;2023-04-03T14:34:05;1.50;;;0.60;;
7783;SDS011;19359;51.402;6.778;2023-04-03T14:36:32;0.80;;;0.60;;
7783;SDS011;19359;51.402;6.778;2023-04-03T14:38:59;1.83;;;0.30;;
7783;SDS011;19359;51.402;6.778;2023-04-03T14:41:27;0.38;;;0.35;;
7783;SDS011;19359;51.402;6.778;2023-04-03T14:43:54;13.05;;;0.85;;
7783;SDS011;19359;51.402;6.778;2023-04-03T14:46:21;2.28;;;0.63;;
7783;SDS011;19359;51.402;6.778;2023-04-03T14:48:50;1.70;;;0.60;;
7783;SDS011;19359;51.402;6.778;2023-04-03T14:51:17;2.08;;;0.80;;
7783;SDS011;19359;51.402;6.778;2023-04-03T14:53:44;1.35;;;0.60;;
7783;SDS011;19359;51.402;6.778;2023-04-03T14:56:12;1.85;;;0.40;;
7783;SDS011;19359;51.402;6.778;2023-04-03T14:58:40;6.13;;;1.23;;
7783;SDS011;19359;51.402;6.778;2023-04-03T15:01:08;1.10;;;1.00;;
7783;SDS011;19359;51.402;6.778;2023-04-03T15:03:36;1.45;;;0.60;;
7783;SDS011;19359;51.402;6.778;2023-04-03T15:06:05;4.38;;;0.98;;
7783;SDS011;19359;51.402;6.778;2023-04-03T15:08:32;2.20;;;0.98;;
7783;SDS011;19359;51.402;6.778;2023-04-03T15:10:59;1.83;;;0.50;;
7783;SDS011;19359;51.402;6.778;2023-04-03T15:13:26;0.98;;;0.88;;
7783;SDS011;19359;51.402;6.778;2023-04-03T15:15:53;1.73;;;0.52;;
7783;SDS011;19359;51.402;6.778;2023-04-03T15:18:21;0.80;;;0.60;;
7783;SDS011;19359;51.402;6.778;2023-04-03T15:20:51;6.70;;;0.98;;
7783;SDS011;19359;51.402;6.778;2023-04-03T15:23:19;0.75;;;0.30;;
7783;SDS011;19359;51.402;6.778;2023-04-03T15:25:51;2.20;;;0.70;;
7783;SDS011;19359;51.402;6.778;2023-04-03T15:28:22;0.45;;;0.43;;
7783;SDS011;19359;51.402;6.778;2023-04-03T15:30:51;4.65;;;1.05;;
7783;SDS011;19359;51.402;6.778;2023-04-03T15:33:17;0.80;;;0.57;;
7783;SDS011;19359;51.402;6.778;2023-04-03T15:35:44;0.68;;;0.50;;
7783;SDS011;19359;51.402;6.778;2023-04-03T15:38:11;1.88;;;0.60;;